createdAt,value
2023-02-27T00:01:46.757Z,25.60
2023-02-27T00:04:14.041Z,19.15
2023-02-27T00:06:41.306Z,16.98
2023-02-27T00:09:09.458Z,18.27
2023-02-27T00:11:38.584Z,17.35
2023-02-27T00:14:06.061Z,16.63
2023-02-27T00:16:34.854Z,22.77
2023-02-27T00:19:04.913Z,11.40
2023-02-27T00:21:36.467Z,26.67
2023-02-27T00:24:06.132Z,15.93
2023-02-27T00:26:33.565Z,15.82
2023-02-27T00:29:00.850Z,20.40
2023-02-27T00:31:28.443Z,13.18
2023-02-27T00:33:56.465Z,16.75
2023-02-27T00:36:23.730Z,21.33
2023-02-27T00:38:50.960Z,15.77
2023-02-27T00:41:18.260Z,12.68
2023-02-27T00:43:46.197Z,17.27
2023-02-27T00:46:13.441Z,18.70
2023-02-27T00:48:40.719Z,12.85
2023-02-27T00:51:08.168Z,16.85
2023-02-27T00:53:35.403Z,18.95
2023-02-27T00:56:02.592Z,13.48
2023-02-27T00:58:29.706Z,11.32
2023-02-27T01:00:57.111Z,20.70
2023-02-27T01:03:24.786Z,17.75
2023-02-27T01:05:52.159Z,15.80
2023-02-27T01:08:20.760Z,16.27
2023-02-27T01:10:48.041Z,14.98
2023-02-27T01:13:15.298Z,12.65
2023-02-27T01:15:42.808Z,11.57
2023-02-27T01:18:12.622Z,14.60
2023-02-27T01:20:39.927Z,11.23
2023-02-27T01:23:07.242Z,14.50
2023-02-27T01:25:34.787Z,15.82
2023-02-27T01:28:01.942Z,9.45
2023-02-27T01:30:30.686Z,13.65
2023-02-27T01:32:57.832Z,11.30
2023-02-27T01:35:25.620Z,10.82
2023-02-27T01:37:53.138Z,16.95
2023-02-27T01:40:21.547Z,13.48
2023-02-27T01:42:48.751Z,13.68
2023-02-27T01:45:15.867Z,8.88
2023-02-27T01:47:46.749Z,12.20
2023-02-27T01:50:14.497Z,11.35
2023-02-27T01:52:42.110Z,9.68
2023-02-27T01:55:12.997Z,12.48
2023-02-27T01:57:41.657Z,12.65
2023-02-27T02:00:10.194Z,13.00
2023-02-27T02:02:39.392Z,15.73
2023-02-27T02:05:08.248Z,14.05
2023-02-27T02:07:38.660Z,18.25
2023-02-27T02:10:06.482Z,10.88
2023-02-27T02:12:35.733Z,12.07
2023-02-27T02:15:03.342Z,10.63
2023-02-27T02:17:44.326Z,16.35
2023-02-27T02:20:30.296Z,11.25
2023-02-27T02:23:03.458Z,13.50
2023-02-27T02:25:54.657Z,13.27
2023-02-27T02:28:48.163Z,15.73
2023-02-27T02:31:21.676Z,15.05
2023-02-27T02:34:00.529Z,14.30
2023-02-27T02:36:41.290Z,15.15
2023-02-27T02:42:01.017Z,12.90
2023-02-27T02:44:29.455Z,13.32
2023-02-27T02:47:08.827Z,13.52
2023-02-27T02:49:39.433Z,14.32
2023-02-27T02:52:14.569Z,15.82
2023-02-27T02:54:48.871Z,18.13
2023-02-27T02:57:26.070Z,16.20
2023-02-27T03:00:12.507Z,12.43
2023-02-27T03:02:43.788Z,9.45
2023-02-27T03:05:15.048Z,14.57
2023-02-27T03:07:51.953Z,14.25
2023-02-27T03:10:19.340Z,15.23
2023-02-27T03:12:50.570Z,23.10
2023-02-27T03:15:19.753Z,27.02
2023-02-27T03:17:52.532Z,31.70
2023-02-27T03:20:23.598Z,35.53
2023-02-27T03:22:53.113Z,37.75
2023-02-27T03:25:21.308Z,32.05
2023-02-27T03:27:52.703Z,37.85
2023-02-27T03:30:41.513Z,29.60
2023-02-27T03:33:11.029Z,32.97
2023-02-27T03:35:54.561Z,29.77
2023-02-27T03:38:27.070Z,25.73
2023-02-27T03:41:03.266Z,29.60
2023-02-27T03:43:39.805Z,26.58
2023-02-27T03:46:06.966Z,23.95
2023-02-27T03:48:34.538Z,17.30
2023-02-27T03:51:02.025Z,18.20
2023-02-27T03:53:34.306Z,19.60
2023-02-27T03:56:02.848Z,20.25
2023-02-27T03:58:30.907Z,15.77
2023-02-27T04:00:58.091Z,14.80
2023-02-27T04:03:32.861Z,15.70
2023-02-27T04:06:20.066Z,15.70
2023-02-27T04:08:56.140Z,15.60
2023-02-27T04:11:36.463Z,12.77
2023-02-27T04:14:10.093Z,16.77
2023-02-27T04:16:40.351Z,14.07
2023-02-27T04:19:13.259Z,18.27
2023-02-27T04:21:54.460Z,12.90
2023-02-27T04:24:30.824Z,18.58
2023-02-27T04:27:06.893Z,16.70
2023-02-27T04:29:34.150Z,20.15
2023-02-27T04:32:07.623Z,23.40
2023-02-27T04:35:04.296Z,19.13
2023-02-27T04:37:35.617Z,14.85
2023-02-27T04:40:09.474Z,14.50
2023-02-27T04:42:39.702Z,14.27
2023-02-27T04:45:08.894Z,12.15
2023-02-27T04:47:39.788Z,16.52
2023-02-27T04:50:19.668Z,14.38
2023-02-27T04:52:50.742Z,17.92
2023-02-27T04:55:50.405Z,18.70
2023-02-27T04:58:30.837Z,21.70
2023-02-27T05:01:07.373Z,15.30
2023-02-27T05:03:36.045Z,14.77
2023-02-27T05:06:03.646Z,14.57
2023-02-27T05:08:30.783Z,15.43
2023-02-27T05:11:03.931Z,12.20
2023-02-27T05:13:39.804Z,16.77
2023-02-27T05:16:07.467Z,14.60
2023-02-27T05:18:34.750Z,14.18
2023-02-27T05:21:22.268Z,14.70
2023-02-27T05:24:01.822Z,16.25
2023-02-27T05:26:48.115Z,18.90
2023-02-27T05:29:21.337Z,15.52
2023-02-27T05:31:54.154Z,19.92
2023-02-27T05:34:30.752Z,18.77
2023-02-27T05:37:04.828Z,16.42
2023-02-27T05:39:33.415Z,17.02
2023-02-27T05:42:06.279Z,21.00
2023-02-27T05:44:38.916Z,14.35
2023-02-27T05:47:09.290Z,16.05
2023-02-27T05:49:42.255Z,15.77
2023-02-27T05:52:12.069Z,17.25
2023-02-27T05:54:48.481Z,17.40
2023-02-27T05:57:19.038Z,13.70
2023-02-27T05:59:46.326Z,14.13
2023-02-27T06:02:13.921Z,15.90
2023-02-27T06:04:41.880Z,14.23
2023-02-27T06:07:09.274Z,16.10
2023-02-27T06:09:37.188Z,18.70
2023-02-27T06:12:04.386Z,21.98
2023-02-27T06:14:31.534Z,18.58
2023-02-27T06:16:58.839Z,20.50
2023-02-27T06:19:26.044Z,19.92
2023-02-27T06:21:53.120Z,19.70
2023-02-27T06:24:22.142Z,17.08
2023-02-27T06:26:49.336Z,18.63
2023-02-27T06:29:18.381Z,20.15
2023-02-27T06:31:45.774Z,21.42
2023-02-27T06:34:12.942Z,17.52
2023-02-27T06:36:40.276Z,14.40
2023-02-27T06:39:08.954Z,18.92
2023-02-27T06:41:36.080Z,24.58
2023-02-27T06:44:03.162Z,21.23
2023-02-27T06:46:30.635Z,21.17
2023-02-27T06:48:58.169Z,18.15
2023-02-27T06:51:25.308Z,17.08
2023-02-27T06:53:52.503Z,19.25
2023-02-27T06:56:19.789Z,21.02
2023-02-27T06:58:46.986Z,20.45
2023-02-27T07:01:14.555Z,13.48
2023-02-27T07:03:41.909Z,22.00
2023-02-27T07:06:09.034Z,17.02
2023-02-27T07:08:36.157Z,21.23
2023-02-27T07:11:03.372Z,21.42
2023-02-27T07:13:30.601Z,19.48
2023-02-27T07:15:57.954Z,16.70
2023-02-27T07:18:25.608Z,17.42
2023-02-27T07:20:55.158Z,20.77
2023-02-27T07:23:23.151Z,20.88
2023-02-27T07:25:50.261Z,18.67
2023-02-27T07:28:17.731Z,20.17
2023-02-27T07:30:45.149Z,29.90
2023-02-27T07:33:12.609Z,20.48
2023-02-27T07:35:39.810Z,20.42
2023-02-27T07:38:09.336Z,18.90
2023-02-27T07:40:36.420Z,22.75
2023-02-27T07:43:03.646Z,21.63
2023-02-27T07:45:30.907Z,22.45
2023-02-27T07:47:58.044Z,23.42
2023-02-27T07:50:25.220Z,22.33
2023-02-27T07:52:53.249Z,19.73
2023-02-27T07:55:20.339Z,20.10
2023-02-27T07:57:47.664Z,33.05
2023-02-27T08:00:15.197Z,18.17
2023-02-27T08:02:43.643Z,17.20
2023-02-27T08:05:10.898Z,20.63
2023-02-27T08:07:37.997Z,17.98
2023-02-27T08:10:05.729Z,20.40
2023-02-27T08:12:32.964Z,18.73
2023-02-27T08:15:00.109Z,21.35
2023-02-27T08:17:27.237Z,19.23
2023-02-27T08:19:54.487Z,17.42
2023-02-27T08:22:21.651Z,19.20
2023-02-27T08:24:48.813Z,20.75
2023-02-27T08:27:16.035Z,18.13
2023-02-27T08:29:43.463Z,21.02
2023-02-27T08:32:10.696Z,19.55
2023-02-27T08:34:38.058Z,17.00
2023-02-27T08:37:05.174Z,18.55
2023-02-27T08:39:32.410Z,22.60
2023-02-27T08:41:59.666Z,22.15
2023-02-27T08:44:27.111Z,21.65
2023-02-27T08:46:54.573Z,19.77
2023-02-27T08:49:23.051Z,17.90
2023-02-27T08:51:50.135Z,19.73
2023-02-27T08:54:17.701Z,22.00
2023-02-27T08:56:45.024Z,16.25
2023-02-27T08:59:12.248Z,14.65
2023-02-27T09:01:39.538Z,14.27
2023-02-27T09:04:07.201Z,13.57
2023-02-27T09:06:35.935Z,12.05
2023-02-27T09:09:03.713Z,11.80
2023-02-27T09:11:31.246Z,15.90
2023-02-27T09:13:58.998Z,18.17
2023-02-27T09:16:26.381Z,17.40
2023-02-27T09:18:54.056Z,15.25
2023-02-27T09:21:21.239Z,11.18
2023-02-27T09:23:48.402Z,14.50
2023-02-27T09:26:17.013Z,16.88
2023-02-27T09:28:44.444Z,24.35
2023-02-27T09:31:12.705Z,16.65
2023-02-27T09:33:40.170Z,21.08
2023-02-27T09:36:07.765Z,14.43
2023-02-27T09:38:35.401Z,17.77
2023-02-27T09:41:02.984Z,21.73
2023-02-27T09:43:36.612Z,17.77
2023-02-27T09:46:04.233Z,21.23
2023-02-27T09:48:31.396Z,21.52
2023-02-27T09:50:59.097Z,21.42
2023-02-27T09:53:31.326Z,19.90
2023-02-27T09:56:05.088Z,21.95
2023-02-27T09:58:38.511Z,26.50
2023-02-27T10:01:14.725Z,18.00
2023-02-27T10:03:59.545Z,21.70
2023-02-27T10:06:28.397Z,17.50
2023-02-27T10:09:14.219Z,24.80
2023-02-27T10:11:46.498Z,18.27
2023-02-27T10:14:31.141Z,24.05
2023-02-27T10:16:59.042Z,15.85
2023-02-27T10:19:33.977Z,17.98
2023-02-27T10:22:04.290Z,17.48
2023-02-27T10:24:46.432Z,14.65
2023-02-27T10:27:17.153Z,14.40
2023-02-27T10:32:14.140Z,18.88
2023-02-27T10:34:42.627Z,17.90
2023-02-27T10:37:14.112Z,19.25
2023-02-27T10:40:00.942Z,16.48
2023-02-27T10:42:30.020Z,14.90
2023-02-27T10:44:57.154Z,14.57
2023-02-27T10:47:25.527Z,12.45
2023-02-27T10:49:53.850Z,11.20
2023-02-27T10:52:21.339Z,17.73
2023-02-27T10:54:48.702Z,17.40
2023-02-27T10:57:24.064Z,18.45
2023-02-27T10:59:59.062Z,12.60
2023-02-27T11:02:33.706Z,12.02
2023-02-27T11:05:01.183Z,17.98
2023-02-27T11:07:38.858Z,18.95
2023-02-27T11:10:15.321Z,16.20
2023-02-27T11:12:43.524Z,14.40
2023-02-27T11:15:16.768Z,14.93
2023-02-27T11:17:44.457Z,15.02
2023-02-27T11:20:30.539Z,12.32
2023-02-27T11:23:13.868Z,22.20
2023-02-27T11:25:41.300Z,16.67
2023-02-27T11:28:21.326Z,20.77
2023-02-27T11:31:03.437Z,28.25
2023-02-27T11:33:33.552Z,19.45
2023-02-27T11:36:00.831Z,16.90
2023-02-27T11:38:31.493Z,21.15
2023-02-27T11:43:25.737Z,17.70
2023-02-27T11:46:15.414Z,15.07
2023-02-27T11:48:49.410Z,30.38
2023-02-27T11:51:26.238Z,21.85
2023-02-27T11:53:57.185Z,18.65
2023-02-27T11:59:00.705Z,15.73
2023-02-27T12:01:33.978Z,16.15
2023-02-27T12:04:27.729Z,15.10
2023-02-27T12:07:17.440Z,22.17
2023-02-27T12:09:46.850Z,17.98
2023-02-27T12:12:20.776Z,18.98
2023-02-27T12:14:58.375Z,14.90
2023-02-27T12:17:28.556Z,18.27
2023-02-27T12:20:09.591Z,19.15
2023-02-27T12:22:38.903Z,17.67
2023-02-27T12:25:12.445Z,25.42
2023-02-27T12:27:45.566Z,20.65
2023-02-27T12:30:18.524Z,19.13
2023-02-27T12:32:45.633Z,16.40
2023-02-27T12:35:28.606Z,16.17
2023-02-27T12:37:56.565Z,17.95
2023-02-27T12:40:30.213Z,17.48
2023-02-27T12:43:35.709Z,17.35
2023-02-27T12:46:12.476Z,9.93
2023-02-27T12:48:51.382Z,14.05
2023-02-27T12:51:30.665Z,15.23
2023-02-27T12:54:16.542Z,16.63
2023-02-27T12:56:51.128Z,15.63
2023-02-27T12:59:30.454Z,18.20
2023-02-27T13:02:06.743Z,15.73
2023-02-27T13:04:47.355Z,24.25
2023-02-27T13:07:22.222Z,18.77
2023-02-27T13:10:01.220Z,14.95
2023-02-27T13:12:35.164Z,11.25
2023-02-27T13:15:07.280Z,16.75
2023-02-27T13:17:42.079Z,16.73
2023-02-27T13:20:25.708Z,18.92
2023-02-27T13:23:02.120Z,13.07
2023-02-27T13:25:29.237Z,15.68
2023-02-27T13:28:00.233Z,20.38
2023-02-27T13:30:33.661Z,19.92
2023-02-27T13:33:08.964Z,19.35
2023-02-27T13:35:56.025Z,12.73
2023-02-27T13:38:34.197Z,16.40
2023-02-27T13:41:19.749Z,17.17
2023-02-27T13:43:56.932Z,19.58
2023-02-27T13:46:31.100Z,16.20
2023-02-27T13:49:10.682Z,17.00
2023-02-27T13:51:41.159Z,16.35
2023-02-27T13:54:09.764Z,11.70
2023-02-27T13:56:36.985Z,8.73
2023-02-27T13:59:19.348Z,10.52
2023-02-27T14:01:52.221Z,9.18
2023-02-27T14:04:20.102Z,5.90
2023-02-27T14:06:48.192Z,9.00
2023-02-27T14:09:18.361Z,11.40
2023-02-27T14:11:54.108Z,8.93
2023-02-27T14:14:36.666Z,11.00
2023-02-27T14:17:04.482Z,12.93
2023-02-27T14:19:34.382Z,15.10
2023-02-27T14:22:03.316Z,12.98
2023-02-27T14:24:49.680Z,16.45
2023-02-27T14:27:25.898Z,19.77
2023-02-27T14:29:55.018Z,16.40
2023-02-27T14:32:23.981Z,14.70
2023-02-27T14:34:52.440Z,15.32
2023-02-27T14:37:23.534Z,15.00
2023-02-27T14:39:51.660Z,16.75
2023-02-27T14:42:37.554Z,29.90
2023-02-27T14:45:05.221Z,21.92
2023-02-27T14:47:33.884Z,17.40
2023-02-27T14:50:01.818Z,17.17
2023-02-27T14:52:30.556Z,18.80
2023-02-27T14:55:16.580Z,19.38
2023-02-27T14:57:54.509Z,24.88
2023-02-27T15:00:49.213Z,25.23
2023-02-27T15:03:24.668Z,21.45
2023-02-27T15:05:54.014Z,25.80
2023-02-27T15:08:30.215Z,21.25
2023-02-27T15:10:57.994Z,25.95
2023-02-27T15:13:31.090Z,19.25
2023-02-27T15:16:17.084Z,24.90
2023-02-27T15:18:48.469Z,29.98
2023-02-27T15:21:20.430Z,32.90
2023-02-27T15:24:03.226Z,37.15
2023-02-27T15:26:31.280Z,39.30
2023-02-27T15:29:00.299Z,34.90
2023-02-27T15:31:31.072Z,29.63
2023-02-27T15:34:00.035Z,19.38
2023-02-27T15:36:31.648Z,20.38
2023-02-27T15:39:06.604Z,25.52
2023-02-27T15:41:34.044Z,26.55
2023-02-27T15:44:02.247Z,20.90
2023-02-27T15:46:29.583Z,23.40
2023-02-27T15:48:56.942Z,20.77
2023-02-27T15:51:26.209Z,25.40
2023-02-27T15:53:55.186Z,28.10
2023-02-27T15:56:27.074Z,29.45
2023-02-27T15:59:00.232Z,23.02
2023-02-27T16:01:35.433Z,24.33
2023-02-27T16:04:05.767Z,19.80
2023-02-27T16:06:34.532Z,19.88
2023-02-27T16:09:07.163Z,15.20
2023-02-27T16:11:35.849Z,16.38
2023-02-27T16:14:03.425Z,21.15
2023-02-27T16:16:35.955Z,20.98
2023-02-27T16:19:15.522Z,23.30
2023-02-27T16:22:02.554Z,20.13
2023-02-27T16:24:31.230Z,16.60
2023-02-27T16:26:58.436Z,20.45
2023-02-27T16:29:35.782Z,19.48
2023-02-27T16:32:03.220Z,14.45
2023-02-27T16:34:44.297Z,18.70
2023-02-27T16:37:23.764Z,13.10
2023-02-27T16:39:54.802Z,16.33
2023-02-27T16:42:24.320Z,19.42
2023-02-27T16:44:51.515Z,16.20
2023-02-27T16:47:18.634Z,15.90
2023-02-27T16:49:47.309Z,21.02
2023-02-27T16:52:14.429Z,21.38
2023-02-27T16:54:42.068Z,29.00
2023-02-27T16:57:14.606Z,19.40
2023-02-27T16:59:49.370Z,23.98
2023-02-27T17:02:29.724Z,22.17
2023-02-27T17:04:58.221Z,19.98
2023-02-27T17:07:25.469Z,27.10
2023-02-27T17:09:52.619Z,24.98
2023-02-27T17:12:23.231Z,31.65
2023-02-27T17:14:50.525Z,32.03
2023-02-27T17:17:19.772Z,73.95
2023-02-27T17:19:53.076Z,41.63
2023-02-27T17:22:20.231Z,24.38
2023-02-27T17:24:47.411Z,27.95
2023-02-27T17:27:17.054Z,25.75
2023-02-27T17:30:08.444Z,23.57
2023-02-27T17:32:54.959Z,17.13
2023-02-27T17:35:22.326Z,21.85
2023-02-27T17:37:50.960Z,18.52
2023-02-27T17:40:31.954Z,21.35
2023-02-27T17:43:00.875Z,21.02
2023-02-27T17:45:28.209Z,18.17
2023-02-27T17:48:03.465Z,17.00
2023-02-27T17:50:32.181Z,22.33
2023-02-27T17:52:59.368Z,23.00
2023-02-27T17:55:26.789Z,26.63
2023-02-27T17:57:53.966Z,26.95
2023-02-27T18:00:21.535Z,29.30
2023-02-27T18:02:48.786Z,33.15
2023-02-27T18:05:16.263Z,35.08
2023-02-27T18:07:43.597Z,42.58
2023-02-27T18:10:11.548Z,38.20
2023-02-27T18:12:39.255Z,43.92
2023-02-27T18:15:07.612Z,44.20
2023-02-27T18:17:35.126Z,44.30
2023-02-27T18:20:02.367Z,50.67
2023-02-27T18:22:30.000Z,49.00
2023-02-27T18:24:58.739Z,38.47
2023-02-27T18:27:28.137Z,36.08
2023-02-27T18:30:01.694Z,40.75
2023-02-27T18:32:28.955Z,33.67
2023-02-27T18:34:56.237Z,36.65
2023-02-27T18:37:25.198Z,36.40
2023-02-27T18:39:52.665Z,42.13
2023-02-27T18:42:20.513Z,30.00
2023-02-27T18:44:48.381Z,62.13
2023-02-27T18:47:15.642Z,53.45
2023-02-27T18:49:48.729Z,44.88
2023-02-27T18:53:36.978Z,37.22
2023-02-27T18:55:57.982Z,28.83
2023-02-27T18:58:53.623Z,34.15
2023-02-27T19:02:03.832Z,240.65
2023-02-27T19:19:53.302Z,598.22
2023-02-27T19:22:22.997Z,248.52
2023-02-27T19:24:50.998Z,126.83
2023-02-27T19:27:20.760Z,65.40
2023-02-27T19:29:50.738Z,55.67
2023-02-27T19:32:18.518Z,30.30
2023-02-27T19:34:49.977Z,32.22
2023-02-27T19:37:21.527Z,29.98
2023-02-27T19:39:51.924Z,28.60
2023-02-27T19:42:19.480Z,31.52
2023-02-27T19:44:47.860Z,29.80
2023-02-27T19:47:27.078Z,31.77
2023-02-27T19:50:02.558Z,37.65
2023-02-27T19:52:29.994Z,36.42
2023-02-27T19:54:57.595Z,31.67
2023-02-27T19:57:29.579Z,35.85
2023-02-27T20:00:01.882Z,28.85
2023-02-27T20:02:46.293Z,30.63
2023-02-27T20:05:32.584Z,30.70
2023-02-27T20:08:06.955Z,29.88
2023-02-27T20:10:45.388Z,31.67
2023-02-27T20:13:16.616Z,35.15
2023-02-27T20:15:44.061Z,31.90
2023-02-27T20:18:11.453Z,31.48
2023-02-27T20:20:40.113Z,35.40
2023-02-27T20:23:07.342Z,36.65
2023-02-27T20:25:34.559Z,37.38
2023-02-27T20:28:01.996Z,39.03
2023-02-27T20:30:29.235Z,33.00
2023-02-27T20:32:56.655Z,31.98
2023-02-27T20:35:23.927Z,32.45
2023-02-27T20:37:51.160Z,31.17
2023-02-27T20:40:18.689Z,31.17
2023-02-27T20:42:45.868Z,38.10
2023-02-27T20:45:13.292Z,35.15
2023-02-27T20:47:40.966Z,35.38
2023-02-27T20:50:11.552Z,32.72
2023-02-27T20:52:38.749Z,34.38
2023-02-27T20:55:06.103Z,34.17
2023-02-27T20:57:33.513Z,30.33
2023-02-27T21:00:00.711Z,35.60
2023-02-27T21:02:27.858Z,37.70
2023-02-27T21:04:57.512Z,30.85
2023-02-27T21:07:24.893Z,39.07
2023-02-27T21:09:52.054Z,33.90
2023-02-27T21:12:19.173Z,32.70
2023-02-27T21:14:46.804Z,36.95
2023-02-27T21:17:14.085Z,35.05
2023-02-27T21:19:45.043Z,31.45
2023-02-27T21:22:19.921Z,30.40
2023-02-27T21:24:52.852Z,29.60
2023-02-27T21:27:21.655Z,34.63
2023-02-27T21:29:52.593Z,34.38
2023-02-27T21:32:24.091Z,32.42
2023-02-27T21:34:53.419Z,34.58
2023-02-27T21:37:20.648Z,24.45
2023-02-27T21:39:55.324Z,29.95
2023-02-27T21:42:22.725Z,34.33
2023-02-27T21:44:50.216Z,36.75
2023-02-27T21:47:18.033Z,33.03
2023-02-27T21:49:47.826Z,40.85
2023-02-27T21:52:16.467Z,40.95
2023-02-27T21:54:59.145Z,37.58
2023-02-27T21:57:26.286Z,34.75
2023-02-27T21:59:53.694Z,36.63
2023-02-27T22:02:21.919Z,37.25
2023-02-27T22:04:51.060Z,35.70
2023-02-27T22:07:18.352Z,34.53
2023-02-27T22:09:45.909Z,37.00
2023-02-27T22:12:15.142Z,38.15
2023-02-27T22:14:43.378Z,34.22
2023-02-27T22:17:11.501Z,35.47
2023-02-27T22:19:38.690Z,36.60
2023-02-27T22:22:10.211Z,52.20
2023-02-27T22:25:01.135Z,56.03
2023-02-27T22:27:30.891Z,49.50
2023-02-27T22:33:42.976Z,59.83
2023-02-27T22:36:13.118Z,59.50
2023-02-27T22:38:50.563Z,57.13
2023-02-27T22:41:50.996Z,48.95
2023-02-27T22:44:49.201Z,48.50
2023-02-27T22:47:21.738Z,50.53
2023-02-27T22:50:28.676Z,56.65
2023-02-27T22:53:25.160Z,48.33
2023-02-27T22:56:04.932Z,46.42
2023-02-27T22:58:37.196Z,47.97
2023-02-27T23:01:40.067Z,52.80
2023-02-27T23:04:09.106Z,67.35
2023-02-27T23:06:39.108Z,50.95
2023-02-27T23:09:07.744Z,54.35
2023-02-27T23:11:35.008Z,43.10
2023-02-27T23:14:02.558Z,42.00
2023-02-27T23:16:29.891Z,50.40
2023-02-27T23:18:58.885Z,48.10
2023-02-27T23:21:34.791Z,45.47
2023-02-27T23:24:13.171Z,47.55
2023-02-27T23:26:42.740Z,66.65
2023-02-27T23:29:10.526Z,54.22
2023-02-27T23:31:38.138Z,62.70
2023-02-27T23:34:06.064Z,71.43
2023-02-27T23:36:35.072Z,60.95
2023-02-27T23:39:03.147Z,51.15
2023-02-27T23:41:31.221Z,51.00
2023-02-27T23:43:58.718Z,52.60
2023-02-27T23:46:30.680Z,53.55
2023-02-27T23:48:58.770Z,56.15
2023-02-27T23:51:27.454Z,53.58
2023-02-27T23:53:57.814Z,53.60
2023-02-27T23:56:26.813Z,53.53
2023-02-27T23:58:59.887Z,62.90
